Time;durP1;ratioP1;P1;durP2;ratioP2;P2;SDS_P1;SDS_P2;PMS_P1;PMS_P2;Temp;Humidity;BMP_temperature;BMP_pressure;BME280_temperature;BME280_humidity;BME280_pressure;Samples;Min_cycle;Max_cycle;Signal;HPM_P1;HPM_P2
2022/12/23 00:01:16;;;;;;;2.40;1.10;;;10.70;99.90;;;;;;5055523;28;20219;-77
2022/12/23 00:03:52;;;;;;;4.03;2.50;;;10.70;99.90;;;;;;5073660;28;20166;-77
2022/12/23 00:06:19;;;;;;;3.77;1.50;;;10.70;99.90;;;;;;5069518;28;20413;-77
2022/12/23 00:08:46;;;;;;;2.50;1.17;;;10.70;99.90;;;;;;5073420;28;20635;-77
2022/12/23 00:11:19;;;;;;;1.50;1.20;;;10.70;99.90;;;;;;5073888;28;20412;-77
2022/12/23 00:16:29;;;;;;;1.80;1.00;;;10.70;99.90;;;;;;5073592;28;20406;-77
2022/12/23 00:18:55;;;;;;;4.60;1.37;;;10.70;99.90;;;;;;5055375;28;20993;-77
2022/12/23 00:21:21;;;;;;;1.83;1.10;;;10.70;99.90;;;;;;5072766;28;20240;-77
2022/12/23 00:23:49;;;;;;;2.03;1.20;;;10.70;99.90;;;;;;5072701;28;20188;-77
2022/12/23 00:26:18;;;;;;;1.97;1.13;;;10.70;99.90;;;;;;5051736;28;20437;-77
2022/12/23 00:28:44;;;;;;;3.10;1.00;;;10.70;99.90;;;;;;5052227;28;20488;-77
2022/12/23 00:31:10;;;;;;;1.90;1.10;;;10.70;99.90;;;;;;5053454;28;20408;-77
2022/12/23 00:33:41;;;;;;;1.70;1.30;;;10.60;99.90;;;;;;5052379;28;20787;-77
2022/12/23 00:36:17;;;;;;;3.50;1.30;;;10.60;99.90;;;;;;5051744;28;20429;-76
2022/12/23 00:44:10;;;;;;;3.87;1.50;;;10.60;99.90;;;;;;5053390;28;20497;-77
2022/12/23 00:46:36;;;;;;;2.70;0.80;;;10.60;99.90;;;;;;5052505;28;20425;-77
2022/12/23 00:51:46;;;;;;;1.53;1.20;;;10.70;99.90;;;;;;5052523;28;20544;-76
2022/12/23 00:54:12;;;;;;;3.97;1.40;;;10.70;99.90;;;;;;5051362;28;20425;-75
2022/12/23 00:56:38;;;;;;;3.00;1.40;;;10.70;99.90;;;;;;5052012;28;20177;-77
2022/12/23 00:59:04;;;;;;;4.70;1.73;;;10.80;99.90;;;;;;5035325;28;20206;-77
2022/12/23 01:07:00;;;;;;;4.43;1.07;;;10.90;99.90;;;;;;5073153;28;20403;-77
2022/12/23 01:09:26;;;;;;;2.43;1.00;;;10.90;99.90;;;;;;5073157;28;20498;-77
2022/12/23 01:11:53;;;;;;;2.97;0.97;;;10.90;99.90;;;;;;5055418;28;20444;-77
2022/12/23 01:14:20;;;;;;;1.60;1.27;;;10.80;99.90;;;;;;5072587;28;20202;-77
2022/12/23 01:16:45;;;;;;;2.03;1.30;;;10.80;99.90;;;;;;5072809;28;20801;-77
2022/12/23 01:19:11;;;;;;;2.37;1.00;;;10.90;99.90;;;;;;5058122;28;20450;-78
2022/12/23 01:21:36;;;;;;;4.50;1.50;;;10.80;99.90;;;;;;5076107;28;20169;-77
2022/12/23 01:24:02;;;;;;;1.80;1.00;;;10.80;99.90;;;;;;5076071;28;20311;-77
2022/12/23 01:26:28;;;;;;;1.50;1.00;;;10.80;99.90;;;;;;5075858;28;20194;-77
2022/12/23 01:28:55;;;;;;;2.67;1.03;;;10.80;99.90;;;;;;5075546;28;20181;-76
2022/12/23 01:31:21;;;;;;;1.20;0.97;;;10.70;99.90;;;;;;5074628;28;20166;-76
2022/12/23 01:33:47;;;;;;;2.00;1.43;;;10.60;99.90;;;;;;5074629;28;20908;-76
2022/12/23 01:36:13;;;;;;;2.20;1.17;;;10.50;99.90;;;;;;5069734;28;20498;-76
2022/12/23 01:38:38;;;;;;;7.23;1.63;;;10.40;99.90;;;;;;5066479;28;20255;-76
2022/12/23 01:41:04;;;;;;;5.43;1.27;;;10.50;99.90;;;;;;5074555;28;20408;-76
2022/12/23 01:43:48;;;;;;;5.60;1.43;;;10.50;99.90;;;;;;5057533;28;20209;-77
2022/12/23 01:46:14;;;;;;;4.53;1.83;;;10.60;99.90;;;;;;5075813;28;20413;-77
2022/12/23 01:48:44;;;;;;;3.20;1.90;;;10.60;99.90;;;;;;5058259;28;20857;-77
2022/12/23 01:51:24;;;;;;;3.47;1.73;;;10.70;99.90;;;;;;5075882;28;20408;-77
2022/12/23 01:53:55;;;;;;;3.70;1.53;;;10.80;99.90;;;;;;5075991;28;20439;-77
2022/12/23 01:56:33;;;;;;;2.27;1.60;;;10.90;99.90;;;;;;5075394;28;20400;-76
2022/12/23 01:59:06;;;;;;;3.70;1.83;;;10.90;99.90;;;;;;5075360;28;20521;-77
2022/12/23 02:04:21;;;;;;;3.30;2.03;;;10.90;99.90;;;;;;5074074;28;20482;-76
2022/12/23 02:09:35;;;;;;;6.60;1.83;;;11.10;99.90;;;;;;5074355;28;20411;-78
2022/12/23 02:12:20;;;;;;;2.50;2.10;;;11.10;99.90;;;;;;5056034;28;20416;-76
2022/12/23 02:18:17;;;;;;;5.73;2.97;;;11.20;99.90;;;;;;5073745;28;20398;-76
2022/12/23 02:21:06;;;;;;;4.40;3.00;;;11.20;99.90;;;;;;5055948;28;20409;-76
2022/12/23 02:23:53;;;;;;;4.33;3.00;;;11.20;99.90;;;;;;5055872;28;20416;-76
2022/12/23 02:26:49;;;;;;;4.27;2.80;;;11.20;99.90;;;;;;5073573;28;20431;-76
2022/12/23 02:29:20;;;;;;;4.00;2.70;;;11.10;99.90;;;;;;5055432;28;20408;-77
2022/12/23 02:31:58;;;;;;;6.27;2.67;;;11.10;99.90;;;;;;5055632;28;20411;-76
2022/12/23 02:34:30;;;;;;;8.70;3.60;;;11.10;99.90;;;;;;5055372;28;20435;-76
2022/12/23 02:37:36;;;;;;;6.57;3.20;;;11.10;99.90;;;;;;5073393;28;20405;-76
2022/12/23 02:40:37;;;;;;;6.47;2.97;;;11.20;99.90;;;;;;5059240;28;20464;-76
2022/12/23 02:43:29;;;;;;;8.50;4.10;;;11.20;99.90;;;;;;5073452;28;20399;-77
2022/12/23 02:46:02;;;;;;;5.40;3.27;;;11.20;99.90;;;;;;5059463;28;20442;-76
2022/12/23 02:48:31;;;;;;;4.93;3.00;;;11.20;99.90;;;;;;5069151;28;20906;-76
2022/12/23 02:50:59;;;;;;;5.13;3.23;;;11.30;99.90;;;;;;5055503;28;20483;-77
2022/12/23 02:53:31;;;;;;;2.80;2.30;;;11.20;99.90;;;;;;5053561;28;20409;-77
2022/12/23 02:55:59;;;;;;;3.97;2.80;;;11.30;99.90;;;;;;5054443;28;20410;-77
2022/12/23 02:58:32;;;;;;;4.60;2.67;;;11.30;99.90;;;;;;5053526;28;20978;-77
2022/12/23 03:00:59;;;;;;;4.70;2.93;;;11.20;99.90;;;;;;5053919;28;20907;-77
2022/12/23 03:03:25;;;;;;;6.13;2.63;;;11.30;99.90;;;;;;5054215;28;20488;-76
2022/12/23 03:05:52;;;;;;;6.93;2.77;;;11.30;99.90;;;;;;5067858;28;20516;-77
2022/12/23 03:08:26;;;;;;;4.77;2.40;;;11.40;99.90;;;;;;5054943;28;20162;-76
2022/12/23 03:11:09;;;;;;;2.97;2.60;;;11.40;99.90;;;;;;5056409;28;20411;-77
2022/12/23 03:14:09;;;;;;;7.40;2.90;;;11.20;99.90;;;;;;5074330;28;20412;-77
2022/12/23 03:16:57;;;;;;;4.77;2.63;;;11.30;99.90;;;;;;5056834;28;20622;-77
2022/12/23 03:19:45;;;;;;;4.50;3.00;;;11.30;99.90;;;;;;5072646;28;20459;-76
2022/12/23 03:22:11;;;;;;;6.07;3.03;;;11.30;99.90;;;;;;5072638;28;20407;-77
2022/12/23 03:24:55;;;;;;;5.60;4.00;;;11.30;99.90;;;;;;5074065;28;20431;-77
2022/12/23 03:27:40;;;;;;;6.03;2.17;;;11.30;99.90;;;;;;5072541;28;20246;-76
2022/12/23 03:30:17;;;;;;;3.63;2.00;;;11.20;99.90;;;;;;5054685;28;20954;-76
2022/12/23 03:32:48;;;;;;;8.30;2.57;;;11.30;99.90;;;;;;5056299;28;20407;-77
2022/12/23 03:35:19;;;;;;;6.60;2.30;;;11.20;99.90;;;;;;5055864;28;20493;-77
2022/12/23 03:37:49;;;;;;;4.97;2.27;;;11.20;99.90;;;;;;5056283;28;20412;-77
2022/12/23 03:40:23;;;;;;;5.80;2.37;;;11.20;99.90;;;;;;5073525;28;20454;-77
2022/12/23 03:42:58;;;;;;;3.97;1.90;;;11.30;99.90;;;;;;5055929;28;20506;-77
2022/12/23 03:45:36;;;;;;;4.20;2.70;;;11.20;99.90;;;;;;5073521;28;20424;-76
2022/12/23 03:48:08;;;;;;;8.93;2.03;;;11.20;99.90;;;;;;5073973;28;20396;-77
2022/12/23 03:50:35;;;;;;;3.60;1.50;;;11.20;99.90;;;;;;5074029;28;20404;-77
2022/12/23 03:53:12;;;;;;;6.50;3.63;;;11.20;99.90;;;;;;5073867;28;20495;-77
2022/12/23 03:55:43;;;;;;;3.80;2.23;;;11.30;99.90;;;;;;5061855;28;20505;-77
2022/12/23 03:58:11;;;;;;;2.70;1.70;;;11.30;99.90;;;;;;5073644;28;20404;-77
2022/12/23 04:00:52;;;;;;;2.90;1.43;;;11.20;99.90;;;;;;5073551;28;20404;-77
2022/12/23 04:03:29;;;;;;;3.57;1.87;;;11.20;99.90;;;;;;5040757;28;20515;-77
2022/12/23 04:06:01;;;;;;;14.33;7.60;;;11.30;99.90;;;;;;5055393;28;20432;-77
2022/12/23 04:08:40;;;;;;;5.90;1.67;;;11.10;99.90;;;;;;5056189;28;20415;-77
2022/12/23 04:11:07;;;;;;;2.80;1.50;;;11.10;99.90;;;;;;5072228;28;20420;-76
2022/12/23 04:13:32;;;;;;;5.33;2.10;;;11.00;99.90;;;;;;5071953;28;20435;-76
2022/12/23 04:15:59;;;;;;;4.23;1.57;;;11.00;99.90;;;;;;5071694;28;20507;-76
2022/12/23 04:18:25;;;;;;;3.83;1.60;;;10.90;99.90;;;;;;5072495;28;20202;-77
2022/12/23 04:20:50;;;;;;;8.00;1.40;;;10.80;99.90;;;;;;5073336;28;20947;-77
2022/12/23 04:23:16;;;;;;;3.93;1.60;;;10.70;99.90;;;;;;5072908;28;20245;-76
2022/12/23 04:25:41;;;;;;;2.67;1.50;;;10.60;99.90;;;;;;5071560;28;20290;-77
2022/12/23 04:28:07;;;;;;;6.40;2.00;;;10.60;99.90;;;;;;5071891;28;20167;-77
2022/12/23 04:30:36;;;;;;;5.83;1.50;;;10.50;99.90;;;;;;5072290;28;20170;-77
2022/12/23 04:33:05;;;;;;;2.80;1.33;;;10.40;99.90;;;;;;5056063;28;20703;-77
2022/12/23 04:35:40;;;;;;;1.97;1.73;;;10.40;99.90;;;;;;5073262;28;20833;-77
2022/12/23 04:38:07;;;;;;;6.23;1.43;;;10.50;99.90;;;;;;5057070;28;20426;-77
2022/12/23 04:40:33;;;;;;;2.70;1.60;;;10.60;99.90;;;;;;5054543;28;20417;-76
2022/12/23 04:42:58;;;;;;;4.37;1.50;;;10.60;99.90;;;;;;5053698;28;20427;-76
2022/12/23 04:45:24;;;;;;;4.47;1.70;;;10.60;99.90;;;;;;5071257;28;20244;-76
2022/12/23 04:47:49;;;;;;;3.30;1.40;;;10.50;99.90;;;;;;5071675;28;20216;-76
2022/12/23 04:50:15;;;;;;;3.10;1.60;;;10.60;99.90;;;;;;5071541;28;20174;-77
2022/12/23 04:52:43;;;;;;;8.00;1.70;;;10.60;99.90;;;;;;5076107;28;20266;-77
2022/12/23 04:55:09;;;;;;;2.33;1.43;;;10.60;99.90;;;;;;5059335;28;20860;-77
2022/12/23 04:57:36;;;;;;;2.87;1.60;;;10.60;99.90;;;;;;5042558;28;20443;-77
2022/12/23 05:00:02;;;;;;;2.60;1.47;;;10.60;99.90;;;;;;5056921;28;20460;-77
2022/12/23 05:02:28;;;;;;;4.20;1.90;;;10.60;99.90;;;;;;5066406;28;20401;-77
2022/12/23 05:04:53;;;;;;;1.97;1.43;;;10.60;99.90;;;;;;5065197;28;20787;-77
2022/12/23 05:07:19;;;;;;;4.50;1.67;;;10.60;99.90;;;;;;5075867;28;20643;-76
2022/12/23 05:09:44;;;;;;;6.40;1.70;;;10.60;99.90;;;;;;5057462;28;20212;-76
2022/12/23 05:12:11;;;;;;;4.53;1.70;;;10.60;99.90;;;;;;5057360;28;20166;-77
2022/12/23 05:14:36;;;;;;;5.10;1.43;;;10.50;99.90;;;;;;5074946;28;20204;-76
2022/12/23 05:17:02;;;;;;;2.40;1.90;;;10.60;99.90;;;;;;5075344;28;20411;-76
2022/12/23 05:19:27;;;;;;;3.07;1.43;;;10.60;99.90;;;;;;5074854;28;20208;-77
2022/12/23 05:21:53;;;;;;;3.17;1.77;;;10.60;99.90;;;;;;5075391;28;20190;-77
2022/12/23 05:24:18;;;;;;;4.43;1.60;;;10.60;99.90;;;;;;5056898;28;20590;-76
2022/12/23 05:26:47;;;;;;;4.90;1.67;;;10.70;99.90;;;;;;5075056;28;20260;-76
2022/12/23 05:29:13;;;;;;;8.10;2.30;;;10.60;99.90;;;;;;5075064;28;20582;-77
2022/12/23 05:31:39;;;;;;;2.37;1.73;;;10.50;99.90;;;;;;5074946;28;20441;-77
2022/12/23 05:34:04;;;;;;;3.57;1.90;;;10.50;99.90;;;;;;5074856;28;20423;-77
2022/12/23 05:36:32;;;;;;;2.40;1.87;;;10.50;99.90;;;;;;5075086;28;20169;-77
2022/12/23 05:39:11;;;;;;;4.23;1.60;;;10.50;99.90;;;;;;5057975;28;20202;-77
2022/12/23 05:41:56;;;;;;;6.17;2.00;;;10.40;99.90;;;;;;5040869;28;20439;-77
2022/12/23 05:44:29;;;;;;;3.00;2.07;;;10.40;99.90;;;;;;5058970;28;20791;-77
2022/12/23 05:46:55;;;;;;;4.13;1.63;;;10.40;99.90;;;;;;5058680;28;20922;-76
2022/12/23 05:49:21;;;;;;;2.13;1.60;;;10.50;99.90;;;;;;5074438;28;20406;-76
2022/12/23 05:51:47;;;;;;;2.80;2.20;;;10.50;99.90;;;;;;5074438;28;20240;-76
2022/12/23 05:54:12;;;;;;;3.57;1.20;;;10.60;99.90;;;;;;5074057;28;20814;-76
2022/12/23 05:56:38;;;;;;;2.70;1.63;;;10.60;99.90;;;;;;5074374;28;20166;-76
2022/12/23 05:59:03;;;;;;;4.17;1.70;;;10.60;99.90;;;;;;5074203;28;20190;-76
2022/12/23 06:01:29;;;;;;;2.67;2.13;;;10.70;99.90;;;;;;5056229;28;20173;-76
2022/12/23 06:03:54;;;;;;;3.37;1.90;;;10.70;99.90;;;;;;5073368;28;20616;-76
2022/12/23 06:06:20;;;;;;;3.20;1.63;;;10.80;99.90;;;;;;5073831;28;20182;-76
2022/12/23 06:08:45;;;;;;;2.40;1.27;;;10.80;99.90;;;;;;5065395;28;20183;-76
2022/12/23 06:11:12;;;;;;;5.30;2.57;;;10.80;99.90;;;;;;5070069;28;20256;-76
2022/12/23 06:13:37;;;;;;;5.73;2.40;;;10.80;99.90;;;;;;5074039;28;20180;-77
2022/12/23 06:16:03;;;;;;;6.40;3.07;;;10.90;99.90;;;;;;5073616;28;20424;-76
2022/12/23 06:18:28;;;;;;;4.33;2.20;;;10.80;99.90;;;;;;5055865;28;20202;-76
2022/12/23 06:20:54;;;;;;;4.60;2.17;;;10.90;99.90;;;;;;5073857;28;20400;-76
2022/12/23 06:23:19;;;;;;;7.80;2.03;;;10.90;99.90;;;;;;5073758;28;20206;-76
2022/12/23 06:25:45;;;;;;;4.33;1.93;;;11.00;99.90;;;;;;5073455;28;20209;-76
2022/12/23 06:28:11;;;;;;;2.77;1.40;;;11.00;99.90;;;;;;5055548;28;20176;-77
2022/12/23 06:30:36;;;;;;;2.90;1.53;;;11.00;99.90;;;;;;5073617;28;20162;-76
2022/12/23 06:33:02;;;;;;;6.53;2.10;;;11.00;99.90;;;;;;5073642;28;20166;-76
2022/12/23 06:35:27;;;;;;;7.27;3.13;;;10.90;99.90;;;;;;5073248;28;20550;-76
2022/12/23 06:37:53;;;;;;;4.30;1.87;;;10.90;99.90;;;;;;5073607;28;20253;-76
2022/12/23 06:40:18;;;;;;;8.47;2.37;;;10.90;99.90;;;;;;5055323;28;20198;-76
2022/12/23 06:42:44;;;;;;;9.40;2.80;;;10.90;99.90;;;;;;5073298;28;20196;-76
2022/12/23 06:45:10;;;;;;;13.10;2.70;;;10.80;99.90;;;;;;5072982;28;20194;-76
2022/12/23 06:47:36;;;;;;;5.20;1.87;;;10.80;99.90;;;;;;5055419;28;20555;-76
2022/12/23 06:50:01;;;;;;;2.87;1.80;;;10.80;99.90;;;;;;5055349;28;20413;-77
2022/12/23 06:52:27;;;;;;;3.50;1.83;;;10.70;99.90;;;;;;5055146;28;20428;-76
2022/12/23 06:54:52;;;;;;;5.27;2.50;;;10.70;99.90;;;;;;5054898;28;20201;-76
2022/12/23 06:57:18;;;;;;;2.30;2.10;;;10.70;99.90;;;;;;5073046;28;20519;-77
2022/12/23 06:59:43;;;;;;;3.13;2.10;;;10.70;99.90;;;;;;5073040;28;20253;-77
2022/12/23 07:02:12;;;;;;;5.80;2.40;;;10.60;99.90;;;;;;5055204;28;20643;-76
2022/12/23 07:04:37;;;;;;;4.63;2.30;;;10.50;99.90;;;;;;5072809;28;20197;-76
2022/12/23 07:07:03;;;;;;;3.97;1.80;;;10.60;99.90;;;;;;5072954;28;20902;-76
2022/12/23 07:09:29;;;;;;;2.43;1.70;;;10.60;99.90;;;;;;5072814;28;20178;-76
2022/12/23 07:11:54;;;;;;;2.80;2.30;;;10.50;99.90;;;;;;5072816;28;20166;-76
2022/12/23 07:14:19;;;;;;;5.93;2.50;;;10.50;99.90;;;;;;5072262;28;20233;-76
2022/12/23 07:16:45;;;;;;;5.50;2.83;;;10.40;99.90;;;;;;5054002;28;20185;-76
2022/12/23 07:19:11;;;;;;;3.90;1.97;;;10.30;99.90;;;;;;5071214;28;20198;-76
2022/12/23 07:21:37;;;;;;;3.30;2.50;;;10.30;99.90;;;;;;5061199;28;20225;-76
2022/12/23 07:24:03;;;;;;;4.60;2.60;;;10.20;99.90;;;;;;5072398;28;20163;-76
2022/12/23 07:26:29;;;;;;;5.43;2.23;;;10.20;99.90;;;;;;5054167;28;20519;-76
2022/12/23 07:28:54;;;;;;;8.73;2.77;;;10.20;99.90;;;;;;5072415;28;21016;-76
2022/12/23 07:31:20;;;;;;;6.00;3.17;;;10.20;99.90;;;;;;5072796;28;20194;-76
2022/12/23 07:33:45;;;;;;;3.73;2.40;;;10.20;99.90;;;;;;5054533;28;20262;-77
2022/12/23 07:36:11;;;;;;;6.90;3.43;;;10.20;99.90;;;;;;5072003;28;20722;-77
2022/12/23 07:38:36;;;;;;;3.30;2.50;;;10.20;99.90;;;;;;5072621;28;20201;-77
2022/12/23 07:41:02;;;;;;;6.67;3.60;;;10.30;99.90;;;;;;5072234;28;20170;-76
2022/12/23 07:43:27;;;;;;;4.60;2.47;;;10.40;99.90;;;;;;5072201;28;20162;-76
2022/12/23 07:45:53;;;;;;;6.53;2.93;;;10.40;99.90;;;;;;5071902;28;20187;-76
2022/12/23 07:48:18;;;;;;;5.80;2.43;;;10.40;99.90;;;;;;5072167;28;20666;-76
2022/12/23 07:50:44;;;;;;;3.60;2.50;;;10.50;99.90;;;;;;5054237;28;20731;-76
2022/12/23 07:53:09;;;;;;;8.50;3.60;;;10.40;99.90;;;;;;5072006;28;20193;-76
2022/12/23 07:55:35;;;;;;;3.77;2.23;;;10.50;99.90;;;;;;5071684;28;20277;-77
2022/12/23 07:58:01;;;;;;;8.80;3.30;;;10.50;99.90;;;;;;5072100;28;20170;-76
2022/12/23 08:00:26;;;;;;;8.30;3.37;;;10.50;99.90;;;;;;5072011;28;20198;-76
2022/12/23 08:02:52;;;;;;;6.60;3.53;;;10.60;99.90;;;;;;5072000;28;20404;-76
2022/12/23 08:05:18;;;;;;;4.70;3.90;;;10.70;99.90;;;;;;5071595;28;20194;-76
2022/12/23 08:07:48;;;;;;;4.13;2.90;;;10.70;99.90;;;;;;5072045;28;20181;-76
2022/12/23 08:10:14;;;;;;;3.50;2.20;;;10.60;99.90;;;;;;5054046;28;20551;-76
2022/12/23 08:12:40;;;;;;;8.63;4.07;;;10.70;99.90;;;;;;5072077;28;20405;-76
2022/12/23 08:15:06;;;;;;;6.83;2.97;;;10.70;99.90;;;;;;5053663;28;20428;-76
2022/12/23 08:17:32;;;;;;;4.50;3.30;;;10.80;99.90;;;;;;5071872;28;20174;-76
2022/12/23 08:19:58;;;;;;;4.57;3.10;;;10.70;99.90;;;;;;5071816;28;20448;-76
2022/12/23 08:22:24;;;;;;;4.10;3.70;;;10.70;99.90;;;;;;5053780;28;20173;-77
2022/12/23 08:24:49;;;;;;;5.53;3.80;;;10.60;99.90;;;;;;5071323;28;20194;-77
2022/12/23 08:27:15;;;;;;;5.60;3.50;;;10.70;99.90;;;;;;5073569;28;20426;-77
2022/12/23 08:29:41;;;;;;;7.03;3.50;;;10.70;99.90;;;;;;5072430;28;20255;-76
2022/12/23 08:32:07;;;;;;;5.50;3.10;;;10.70;99.90;;;;;;5057605;28;20180;-77
2022/12/23 08:34:33;;;;;;;4.80;2.90;;;10.80;99.90;;;;;;5075214;28;20423;-77
2022/12/23 08:36:58;;;;;;;6.47;4.07;;;10.80;99.90;;;;;;5058433;28;20922;-76
2022/12/23 08:39:24;;;;;;;5.37;3.27;;;10.70;99.90;;;;;;5075504;28;20896;-76
2022/12/23 08:41:49;;;;;;;3.67;2.80;;;10.60;99.90;;;;;;5075484;28;20562;-76
2022/12/23 08:44:16;;;;;;;9.10;3.80;;;10.70;99.90;;;;;;5075321;28;20186;-76
2022/12/23 08:46:42;;;;;;;6.90;3.10;;;10.60;99.90;;;;;;5075663;28;20163;-77
2022/12/23 08:49:08;;;;;;;5.20;2.67;;;10.60;99.90;;;;;;5075606;28;20420;-77
2022/12/23 08:51:35;;;;;;;2.97;2.63;;;10.60;99.90;;;;;;5057512;28;20483;-77
2022/12/23 08:54:01;;;;;;;5.73;3.70;;;10.60;99.90;;;;;;5075298;28;20166;-76
2022/12/23 08:56:32;;;;;;;4.73;3.03;;;10.60;99.90;;;;;;5075103;28;20765;-77
2022/12/23 08:58:58;;;;;;;5.43;3.30;;;10.60;99.90;;;;;;5075393;28;20198;-76
2022/12/23 09:01:26;;;;;;;6.80;3.20;;;10.60;99.90;;;;;;5075524;28;20738;-76
2022/12/23 09:03:52;;;;;;;3.70;3.00;;;10.60;99.90;;;;;;5075306;28;20787;-76
2022/12/23 09:06:26;;;;;;;5.57;2.97;;;10.60;99.90;;;;;;5074799;28;20404;-76
2022/12/23 09:08:53;;;;;;;4.83;3.03;;;10.70;99.90;;;;;;5057263;28;20261;-76
2022/12/23 09:11:21;;;;;;;9.60;4.17;;;10.70;99.90;;;;;;5075033;28;20409;-76
2022/12/23 09:13:47;;;;;;;6.40;3.13;;;10.70;99.90;;;;;;5074743;28;20481;-76
2022/12/23 09:16:13;;;;;;;8.87;2.57;;;10.70;99.90;;;;;;5074843;28;20400;-76
2022/12/23 09:18:40;;;;;;;4.80;2.83;;;10.70;99.90;;;;;;5056918;28;20454;-76
2022/12/23 09:21:09;;;;;;;3.50;2.30;;;10.70;99.90;;;;;;5074814;28;20399;-76
2022/12/23 09:23:35;;;;;;;2.37;1.80;;;10.70;99.90;;;;;;5074873;28;20408;-77
2022/12/23 09:26:02;;;;;;;6.03;2.30;;;10.70;99.90;;;;;;5056406;28;20451;-76
2022/12/23 09:28:27;;;;;;;2.80;1.83;;;10.80;99.90;;;;;;5074824;28;20174;-76
2022/12/23 09:30:53;;;;;;;2.80;1.80;;;10.80;99.90;;;;;;5074467;28;21014;-76
2022/12/23 09:33:19;;;;;;;5.20;1.40;;;10.80;99.90;;;;;;5056783;28;20215;-76
2022/12/23 09:35:44;;;;;;;1.90;1.70;;;11.00;99.90;;;;;;5074219;28;20182;-76
2022/12/23 09:38:10;;;;;;;3.83;1.47;;;11.10;99.90;;;;;;5073555;28;20170;-76
2022/12/23 09:40:38;;;;;;;2.23;1.97;;;11.20;99.90;;;;;;5052968;28;20682;-76
2022/12/23 09:43:22;;;;;;;3.10;2.07;;;11.20;99.90;;;;;;5069913;28;20678;-76
2022/12/23 09:46:18;;;;;;;2.80;2.30;;;11.20;99.90;;;;;;5074168;28;20894;-76
2022/12/23 09:49:04;;;;;;;3.40;1.60;;;11.20;99.90;;;;;;5074506;28;20458;-76
2022/12/23 09:51:31;;;;;;;3.10;2.03;;;11.40;99.90;;;;;;5074417;28;20472;-76
2022/12/23 09:54:08;;;;;;;5.43;2.77;;;11.50;99.90;;;;;;5074249;28;20404;-76
2022/12/23 09:56:47;;;;;;;2.53;2.17;;;11.60;99.90;;;;;;5074176;28;20444;-76
2022/12/23 09:59:19;;;;;;;2.67;1.77;;;11.70;99.90;;;;;;5074331;28;20485;-76
2022/12/23 10:02:18;;;;;;;3.63;1.90;;;11.70;99.90;;;;;;5074206;28;20479;-76
2022/12/23 10:05:02;;;;;;;4.80;2.43;;;11.70;99.90;;;;;;5055712;28;20428;-77
2022/12/23 10:07:42;;;;;;;5.27;2.10;;;11.70;99.90;;;;;;5074456;28;20403;-77
2022/12/23 10:10:24;;;;;;;4.83;2.30;;;11.60;99.90;;;;;;5073875;28;20454;-76
2022/12/23 10:12:52;;;;;;;5.00;2.53;;;11.60;99.90;;;;;;5073973;28;20492;-76
2022/12/23 10:15:31;;;;;;;4.37;2.17;;;11.60;99.90;;;;;;5055263;28;20428;-76
2022/12/23 10:18:03;;;;;;;2.97;1.90;;;11.60;99.90;;;;;;5073864;28;20412;-76
2022/12/23 10:20:44;;;;;;;3.67;2.60;;;11.60;99.90;;;;;;5073851;28;20491;-77
2022/12/23 10:23:22;;;;;;;4.07;2.10;;;11.60;99.90;;;;;;5073878;28;20401;-77
2022/12/23 10:25:50;;;;;;;3.10;1.97;;;11.60;99.90;;;;;;5073247;28;20432;-76
2022/12/23 10:28:16;;;;;;;4.33;2.43;;;11.50;99.90;;;;;;5073669;28;20480;-76
2022/12/23 10:30:50;;;;;;;3.23;1.93;;;11.60;99.90;;;;;;5055861;28;20416;-77
2022/12/23 10:33:23;;;;;;;3.43;1.80;;;11.60;99.90;;;;;;5055605;28;20469;-76
2022/12/23 10:36:00;;;;;;;2.90;1.60;;;11.60;99.90;;;;;;5055271;28;20424;-76
2022/12/23 10:38:55;;;;;;;1.53;1.30;;;11.50;99.90;;;;;;5073340;28;20407;-77
2022/12/23 10:41:34;;;;;;;3.27;2.20;;;11.50;99.90;;;;;;4968179;28;20445;-76
2022/12/23 10:44:17;;;;;;;3.00;2.30;;;11.50;99.90;;;;;;5073253;28;20401;-76
2022/12/23 10:46:51;;;;;;;2.90;2.20;;;11.50;99.90;;;;;;5068786;28;20419;-77
2022/12/23 10:49:35;;;;;;;3.10;2.20;;;11.60;99.90;;;;;;5055670;28;20458;-77
2022/12/23 10:52:20;;;;;;;3.03;2.10;;;11.50;99.90;;;;;;5053240;28;20401;-77
2022/12/23 10:54:46;;;;;;;3.20;1.83;;;11.60;99.90;;;;;;5052835;28;20460;-76
2022/12/23 10:57:15;;;;;;;5.10;2.10;;;11.70;99.90;;;;;;5053268;28;20488;-76
2022/12/23 10:59:41;;;;;;;2.47;1.90;;;11.60;99.90;;;;;;5053030;28;20934;-76
2022/12/23 11:02:12;;;;;;;7.10;2.67;;;11.60;99.90;;;;;;5053082;28;20401;-76
2022/12/23 11:04:48;;;;;;;5.07;3.10;;;11.70;99.90;;;;;;5054631;28;20506;-76
2022/12/23 11:07:19;;;;;;;4.90;2.60;;;11.70;99.90;;;;;;5072850;28;20403;-76
2022/12/23 11:09:56;;;;;;;5.23;2.00;;;11.70;99.90;;;;;;5072912;28;20491;-76
2022/12/23 11:12:23;;;;;;;5.60;2.63;;;11.70;99.90;;;;;;5072756;28;20545;-76
2022/12/23 11:14:52;;;;;;;4.57;3.40;;;11.70;99.90;;;;;;5072089;28;20499;-75
2022/12/23 11:17:23;;;;;;;3.97;2.70;;;11.90;99.90;;;;;;5054636;28;20921;-76
2022/12/23 11:20:08;;;;;;;2.43;2.23;;;12.00;99.90;;;;;;5054532;28;20486;-76
2022/12/23 11:22:34;;;;;;;3.30;2.60;;;12.00;99.90;;;;;;5072543;28;20400;-76
2022/12/23 11:25:27;;;;;;;8.47;2.90;;;11.90;99.90;;;;;;5072041;28;20510;-76
2022/12/23 11:28:01;;;;;;;5.00;3.10;;;11.90;99.90;;;;;;5072373;28;20177;-76
2022/12/23 11:30:27;;;;;;;9.03;2.73;;;11.80;99.90;;;;;;5072472;28;20503;-76
2022/12/23 11:32:53;;;;;;;4.80;2.43;;;11.60;99.90;;;;;;5072388;28;20405;-76
2022/12/23 11:35:25;;;;;;;3.90;2.60;;;11.50;99.90;;;;;;5071999;28;20500;-76
2022/12/23 11:37:51;;;;;;;4.70;2.20;;;11.50;99.90;;;;;;5072373;28;20205;-76
2022/12/23 11:40:35;;;;;;;2.73;2.33;;;11.50;99.90;;;;;;5072262;28;20479;-76
2022/12/23 11:43:11;;;;;;;5.10;2.00;;;11.40;99.90;;;;;;5072427;28;20166;-76
2022/12/23 11:45:37;;;;;;;6.10;2.57;;;11.20;99.90;;;;;;5071888;28;20416;-76
2022/12/23 11:48:04;;;;;;;4.87;2.23;;;11.10;99.90;;;;;;5072281;28;20396;-76
2022/12/23 11:50:36;;;;;;;3.60;2.20;;;11.10;99.90;;;;;;5072251;28;20405;-76
2022/12/23 11:53:20;;;;;;;3.47;2.40;;;11.10;99.90;;;;;;5072143;28;20412;-76
2022/12/23 11:55:56;;;;;;;9.67;2.83;;;11.10;99.90;;;;;;5071819;28;20834;-76
2022/12/23 11:58:23;;;;;;;3.03;2.07;;;11.20;99.90;;;;;;5053805;28;20446;-76
2022/12/23 12:00:55;;;;;;;3.53;2.33;;;11.20;99.90;;;;;;5054065;28;20492;-76
2022/12/23 12:03:29;;;;;;;5.60;2.73;;;11.20;99.90;;;;;;5051855;28;20484;-76
2022/12/23 12:06:05;;;;;;;3.67;2.27;;;11.30;99.90;;;;;;5068045;28;20435;-77
2022/12/23 12:08:38;;;;;;;4.07;2.23;;;11.20;99.90;;;;;;5056059;28;20404;-77
2022/12/23 12:11:11;;;;;;;3.77;1.93;;;11.10;99.90;;;;;;5056287;28;20404;-77
2022/12/23 12:13:42;;;;;;;4.17;1.80;;;11.10;99.90;;;;;;5074205;28;20396;-77
2022/12/23 12:16:21;;;;;;;3.33;2.33;;;11.00;99.90;;;;;;5073623;28;20846;-77
2022/12/23 12:18:49;;;;;;;5.37;2.40;;;11.00;99.90;;;;;;5056308;28;20447;-77
2022/12/23 12:21:29;;;;;;;6.40;2.67;;;11.00;99.90;;;;;;5074436;28;20404;-77
2022/12/23 12:24:04;;;;;;;6.27;3.30;;;11.00;99.90;;;;;;5056100;28;20466;-77
2022/12/23 12:26:33;;;;;;;2.80;2.10;;;11.00;99.90;;;;;;5055897;28;20432;-77
2022/12/23 12:29:20;;;;;;;4.93;2.43;;;11.00;99.90;;;;;;5074468;28;20428;-77
2022/12/23 12:31:52;;;;;;;8.13;2.50;;;11.00;99.90;;;;;;5073926;28;20396;-77
2022/12/23 12:34:47;;;;;;;2.43;1.90;;;10.90;99.90;;;;;;5074229;28;20424;-77
2022/12/23 12:37:26;;;;;;;3.13;2.63;;;10.80;99.90;;;;;;5074505;28;20464;-77
2022/12/23 12:39:53;;;;;;;3.10;1.80;;;10.70;99.90;;;;;;5074221;28;20482;-77
2022/12/23 12:42:31;;;;;;;2.60;2.10;;;10.60;99.90;;;;;;5056124;28;20436;-77
2022/12/23 12:45:13;;;;;;;3.17;1.77;;;10.60;99.90;;;;;;5074205;28;20939;-77
2022/12/23 12:48:03;;;;;;;3.83;1.50;;;10.50;99.90;;;;;;5057092;28;20400;-77
2022/12/23 12:50:32;;;;;;;3.83;1.40;;;10.50;99.90;;;;;;5056593;28;20417;-77
2022/12/23 12:53:17;;;;;;;1.77;1.00;;;10.50;99.90;;;;;;5074921;28;20404;-77
2022/12/23 12:55:49;;;;;;;2.77;1.90;;;10.40;99.90;;;;;;5073768;28;20427;-77
2022/12/23 12:58:19;;;;;;;6.90;3.37;;;10.40;99.90;;;;;;5074553;28;20404;-76
2022/12/23 13:01:16;;;;;;;9.43;4.10;;;10.30;99.90;;;;;;5055528;28;20499;-77
2022/12/23 13:04:14;;;;;;;3.97;2.90;;;10.30;99.90;;;;;;5074551;28;20405;-78
2022/12/23 13:06:42;;;;;;;7.93;3.83;;;10.20;99.90;;;;;;5056898;28;20443;-78
2022/12/23 13:09:35;;;;;;;4.93;2.60;;;10.10;99.90;;;;;;5055143;28;20405;-78
2022/12/23 13:12:19;;;;;;;10.20;2.90;;;10.10;99.90;;;;;;5055314;28;20461;-78
2022/12/23 13:14:50;;;;;;;5.87;2.93;;;10.00;99.90;;;;;;5041555;28;20441;-78
2022/12/23 13:17:26;;;;;;;5.37;2.37;;;10.00;99.90;;;;;;5040826;28;20424;-78
2022/12/23 13:20:17;;;;;;;2.40;1.60;;;10.00;99.90;;;;;;5040052;28;21009;-80
2022/12/23 13:22:48;;;;;;;4.77;2.60;;;9.90;99.90;;;;;;5058200;28;20408;-80
2022/12/23 13:25:16;;;;;;;5.33;2.20;;;9.90;99.90;;;;;;5040084;28;20421;-81
2022/12/23 13:27:42;;;;;;;7.00;2.33;;;9.90;99.90;;;;;;5041579;28;20802;-79
2022/12/23 13:30:16;;;;;;;2.87;2.33;;;9.90;99.90;;;;;;5042052;28;20409;-78
2022/12/23 13:33:12;;;;;;;4.07;2.37;;;9.90;99.90;;;;;;5037206;28;20261;-78